createdAt,value
2016-11-13T00:01:14.633Z,1027.6
2016-11-13T00:06:18.710Z,1027.6
2016-11-13T00:11:22.800Z,1027.7
2016-11-13T00:16:27.209Z,1027.7
2016-11-13T00:21:31.625Z,1027.7
2016-11-13T00:26:35.706Z,1027.8
2016-11-13T00:31:40.127Z,1027.8
2016-11-13T00:36:44.545Z,1027.7
2016-11-13T00:41:48.625Z,1027.8
2016-11-13T00:46:52.711Z,1027.8
2016-11-13T00:51:56.788Z,1027.7
2016-11-13T00:57:00.867Z,1027.8
2016-11-13T01:02:05.281Z,1027.7
2016-11-13T01:07:09.691Z,1027.7
2016-11-13T01:12:14.104Z,1027.7
2016-11-13T01:17:18.179Z,1027.7
2016-11-13T01:22:22.262Z,1027.7
2016-11-13T01:27:26.673Z,1027.7
2016-11-13T01:32:31.087Z,1027.7
2016-11-13T01:37:35.836Z,1027.6
2016-11-13T01:42:39.922Z,1027.6
2016-11-13T01:47:44.002Z,1027.6
2016-11-13T01:52:48.086Z,1027.6
2016-11-13T01:57:52.169Z,1027.7
2016-11-13T02:02:56.244Z,1027.7
2016-11-13T02:08:00.658Z,1027.8
2016-11-13T02:13:04.739Z,1027.7
2016-11-13T02:18:08.813Z,1027.6
2016-11-13T02:23:12.896Z,1027.5
2016-11-13T02:28:17.308Z,1027.5
2016-11-13T02:33:21.387Z,1027.6
2016-11-13T02:38:25.476Z,1027.6
2016-11-13T02:43:30.232Z,1027.6
2016-11-13T02:48:34.645Z,1027.6
2016-11-13T02:53:39.057Z,1027.7
2016-11-13T02:58:43.136Z,1027.7
2016-11-13T03:03:47.208Z,1027.8
2016-11-13T03:08:51.627Z,1027.7
2016-11-13T03:13:55.707Z,1027.8
2016-11-13T03:18:59.788Z,1027.8
2016-11-13T03:24:04.204Z,1027.9
2016-11-13T03:29:08.630Z,1027.7
2016-11-13T03:34:13.375Z,1027.8
2016-11-13T03:39:17.453Z,1027.8
2016-11-13T03:44:21.533Z,1027.8
2016-11-13T03:49:25.616Z,1027.9
2016-11-13T03:54:29.698Z,1027.9
2016-11-13T03:59:34.112Z,1027.9
2016-11-13T04:04:38.872Z,1027.8
2016-11-13T04:09:43.293Z,1027.7
2016-11-13T04:14:47.712Z,1027.7
2016-11-13T04:19:52.134Z,1027.7
2016-11-13T04:24:56.554Z,1027.7
2016-11-13T04:30:00.635Z,1027.6
2016-11-13T04:35:04.711Z,1027.8
2016-11-13T04:40:09.131Z,1027.8
2016-11-13T04:45:13.876Z,1027.8
2016-11-13T04:50:17.967Z,1027.8
2016-11-13T04:55:22.724Z,1027.8
2016-11-13T05:00:26.812Z,1027.8
2016-11-13T05:05:30.886Z,1027.8
2016-11-13T05:10:34.974Z,1027.8
2016-11-13T05:15:39.382Z,1027.7
2016-11-13T05:20:43.801Z,1027.7
2016-11-13T05:25:47.887Z,1027.8
2016-11-13T05:30:51.973Z,1027.8
2016-11-13T05:35:56.068Z,1027.9
2016-11-13T05:41:00.488Z,1027.9
2016-11-13T05:46:04.569Z,1027.9
2016-11-13T05:51:08.994Z,1028
2016-11-13T05:56:13.416Z,1028
2016-11-13T06:01:18.164Z,1028
2016-11-13T06:06:22.915Z,1028
2016-11-13T06:11:27.327Z,1028.1
2016-11-13T06:16:32.082Z,1028.1
2016-11-13T06:21:36.502Z,1028.2
2016-11-13T06:26:40.908Z,1028.2
2016-11-13T06:31:45.323Z,1028.2
2016-11-13T06:36:49.405Z,1028.2
2016-11-13T06:41:53.489Z,1028.2
2016-11-13T06:46:57.905Z,1028.4
2016-11-13T06:52:02.326Z,1028.4
2016-11-13T06:57:07.077Z,1028.5
2016-11-13T07:02:11.162Z,1028.6
2016-11-13T07:07:15.242Z,1028.6
2016-11-13T07:12:19.990Z,1028.6
2016-11-13T07:17:24.071Z,1028.8
2016-11-13T07:22:28.151Z,1028.8
2016-11-13T07:27:32.585Z,1029
2016-11-13T07:32:36.993Z,1028.9
2016-11-13T07:37:41.076Z,1029
2016-11-13T07:42:45.164Z,1029.1
2016-11-13T07:47:49.245Z,1029.1
2016-11-13T07:52:53.344Z,1029.1
2016-11-13T07:57:57.430Z,1029.1
2016-11-13T08:03:02.526Z,1029.2
2016-11-13T08:08:06.684Z,1029.3
2016-11-13T08:13:10.770Z,1029.3
2016-11-13T08:18:15.201Z,1029.3
2016-11-13T08:23:19.627Z,1029.3
2016-11-13T08:28:24.108Z,1029.4
2016-11-13T08:33:28.535Z,1029.5
2016-11-13T08:38:32.850Z,1029.6
2016-11-13T08:43:37.829Z,1029.6
2016-11-13T08:48:42.254Z,1029.6
2016-11-13T08:53:46.342Z,1029.6
2016-11-13T08:58:50.761Z,1029.6
2016-11-13T09:03:55.185Z,1029.6
2016-11-13T09:08:59.612Z,1029.5
2016-11-13T09:14:03.696Z,1029.5
2016-11-13T09:19:07.779Z,1029.5
2016-11-13T09:24:12.201Z,1029.6
2016-11-13T09:29:16.290Z,1029.6
2016-11-13T09:34:20.372Z,1029.7
2016-11-13T09:39:24.800Z,1029.8
2016-11-13T09:44:29.295Z,1029.8
2016-11-13T09:49:33.386Z,1029.9
2016-11-13T09:54:37.807Z,1029.9
2016-11-13T09:59:41.891Z,1030
2016-11-13T10:04:46.316Z,1030
2016-11-13T10:09:50.736Z,1030
2016-11-13T10:14:54.825Z,1030
2016-11-13T10:19:58.918Z,1030
2016-11-13T10:25:03.013Z,1030.1
2016-11-13T10:30:07.437Z,1030.1
2016-11-13T10:35:12.192Z,1030.1
2016-11-13T10:40:16.615Z,1030
2016-11-13T10:45:20.693Z,1030.1
2016-11-13T10:50:25.115Z,1030
2016-11-13T10:55:29.873Z,1029.9
2016-11-13T11:00:34.645Z,1030
2016-11-13T11:05:39.080Z,1030
2016-11-13T11:10:43.168Z,1030
2016-11-13T11:15:47.252Z,1030.1
2016-11-13T11:20:51.671Z,1030.1
2016-11-13T11:25:56.110Z,1030.1
2016-11-13T11:31:00.543Z,1030
2016-11-13T11:36:04.621Z,1029.9
2016-11-13T11:41:09.068Z,1029.9
2016-11-13T11:46:13.383Z,1029.9
2016-11-13T11:51:17.839Z,1029.8
2016-11-13T11:56:21.933Z,1029.8
2016-11-13T12:01:26.353Z,1029.8
2016-11-13T12:06:30.500Z,1029.8
2016-11-13T12:11:34.580Z,1029.8
2016-11-13T12:16:38.995Z,1029.8
2016-11-13T12:21:43.085Z,1029.8
2016-11-13T12:26:47.524Z,1029.8
2016-11-13T12:31:51.627Z,1029.8
2016-11-13T12:36:56.064Z,1029.8
2016-11-13T12:42:00.149Z,1029.8
2016-11-13T12:47:04.243Z,1029.7
2016-11-13T12:52:08.663Z,1029.7
2016-11-13T12:57:12.837Z,1029.8
2016-11-13T13:02:17.291Z,1029.7
2016-11-13T13:07:21.407Z,1029.7
2016-11-13T13:12:25.827Z,1029.7
2016-11-13T13:17:29.919Z,1029.8
2016-11-13T13:22:34.683Z,1029.9
2016-11-13T13:27:39.104Z,1030
2016-11-13T13:32:43.525Z,1030
2016-11-13T13:37:47.943Z,1029.9
2016-11-13T13:42:52.364Z,1029.9
2016-11-13T13:47:56.450Z,1030
2016-11-13T13:53:00.533Z,1030
2016-11-13T13:58:05.295Z,1030
2016-11-13T14:03:09.744Z,1030
2016-11-13T14:08:14.192Z,1030
2016-11-13T14:13:18.286Z,1030
2016-11-13T14:18:22.709Z,1030
2016-11-13T14:23:26.792Z,1030.1
2016-11-13T14:28:31.214Z,1030.1
2016-11-13T14:33:35.299Z,1030.2
2016-11-13T14:38:39.717Z,1030.3
2016-11-13T14:43:44.466Z,1030.4
2016-11-13T14:48:48.887Z,1030.4
2016-11-13T14:53:53.310Z,1030.4
2016-11-13T14:58:57.417Z,1030.5
2016-11-13T15:04:01.835Z,1030.5
2016-11-13T15:09:05.930Z,1030.6
2016-11-13T15:14:10.366Z,1030.6
2016-11-13T15:19:14.839Z,1030.6
2016-11-13T15:24:19.321Z,1030.6
2016-11-13T15:29:23.409Z,1030.6
2016-11-13T15:34:27.492Z,1030.7
2016-11-13T15:39:31.573Z,1030.7
2016-11-13T15:44:36.817Z,1030.8
2016-11-13T15:49:41.241Z,1030.8
2016-11-13T15:54:45.654Z,1030.9
2016-11-13T15:59:50.464Z,1030.9
2016-11-13T16:04:54.562Z,1030.9
2016-11-13T16:09:58.640Z,1031.1
2016-11-13T16:15:03.053Z,1031.1
2016-11-13T16:20:07.817Z,1031.1
2016-11-13T16:25:11.904Z,1031.2
2016-11-13T16:30:16.179Z,1031.3
2016-11-13T16:35:20.266Z,1031.4
2016-11-13T16:40:24.532Z,1031.4
2016-11-13T16:45:28.813Z,1031.5
2016-11-13T16:50:33.236Z,1031.5
2016-11-13T16:55:37.654Z,1031.5
2016-11-13T17:00:41.750Z,1031.6
2016-11-13T17:05:45.830Z,1031.6
2016-11-13T17:10:50.580Z,1031.6
2016-11-13T17:15:54.659Z,1031.7
2016-11-13T17:20:58.741Z,1031.8
2016-11-13T17:26:03.492Z,1031.9
2016-11-13T17:31:08.243Z,1032.1
2016-11-13T17:36:12.324Z,1032.3
2016-11-13T17:41:16.416Z,1032.4
2016-11-13T17:46:20.994Z,1032.4
2016-11-13T17:51:25.156Z,1032.4
2016-11-13T17:56:29.905Z,1032.4
2016-11-13T18:01:34.371Z,1032.5
2016-11-13T18:06:38.822Z,1032.5
2016-11-13T18:11:43.265Z,1032.6
2016-11-13T18:16:47.368Z,1032.7
2016-11-13T18:21:51.788Z,1032.7
2016-11-13T18:26:56.208Z,1032.8
2016-11-13T18:32:00.630Z,1032.8
2016-11-13T18:37:04.719Z,1032.8
2016-11-13T18:42:09.067Z,1032.8
2016-11-13T18:47:13.167Z,1032.8
2016-11-13T18:52:17.583Z,1032.9
2016-11-13T18:57:22.028Z,1033
2016-11-13T19:02:26.453Z,1033
2016-11-13T19:07:30.875Z,1033.1
2016-11-13T19:12:34.959Z,1033.1
2016-11-13T19:17:39.041Z,1033.2
2016-11-13T19:22:43.468Z,1033.2
2016-11-13T19:27:47.548Z,1033.3
2016-11-13T19:32:51.632Z,1033.3
2016-11-13T19:37:55.713Z,1033.3
2016-11-13T19:42:59.793Z,1033.3
2016-11-13T19:48:03.877Z,1033.2
2016-11-13T19:53:07.961Z,1033.1
2016-11-13T19:58:12.381Z,1033.1
2016-11-13T20:03:16.800Z,1033.2
2016-11-13T20:08:21.223Z,1033.3
2016-11-13T20:13:25.982Z,1033.4
2016-11-13T20:18:30.079Z,1033.3
2016-11-13T20:23:34.510Z,1033.3
2016-11-13T20:28:38.593Z,1033.3
2016-11-13T20:33:43.351Z,1033.2
2016-11-13T20:38:47.772Z,1033.2
2016-11-13T20:43:52.246Z,1033.3
2016-11-13T20:48:56.345Z,1033.1
2016-11-13T20:54:00.774Z,1033.1
2016-11-13T20:59:04.861Z,1033.1
2016-11-13T21:04:08.991Z,1033.1
2016-11-13T21:09:13.348Z,1033.1
2016-11-13T21:14:17.425Z,1033.2
2016-11-13T21:19:21.546Z,1033.2
2016-11-13T21:24:26.309Z,1033.2
2016-11-13T21:29:31.113Z,1033.3
2016-11-13T21:34:35.534Z,1033.3
2016-11-13T21:39:39.692Z,1033.4
2016-11-13T21:44:43.774Z,1033.3
2016-11-13T21:49:48.210Z,1033.4
2016-11-13T21:54:52.297Z,1033.4
2016-11-13T21:59:56.400Z,1033.5
2016-11-13T22:05:00.486Z,1033.5
2016-11-13T22:10:05.245Z,1033.5
2016-11-13T22:15:09.995Z,1033.6
2016-11-13T22:20:14.074Z,1033.5
2016-11-13T22:25:18.153Z,1033.5
2016-11-13T22:30:22.234Z,1033.5
2016-11-13T22:35:26.321Z,1033.4
2016-11-13T22:40:30.741Z,1033.4
2016-11-13T22:45:34.822Z,1033.5
2016-11-13T22:50:39.237Z,1033.5
2016-11-13T22:55:43.318Z,1033.6
2016-11-13T23:00:47.737Z,1033.6
2016-11-13T23:05:51.816Z,1033.7
2016-11-13T23:10:55.897Z,1033.6
2016-11-13T23:16:00.657Z,1033.6
2016-11-13T23:21:04.744Z,1033.7
2016-11-13T23:26:08.828Z,1033.8
2016-11-13T23:31:12.910Z,1033.8
2016-11-13T23:36:17.999Z,1033.8
2016-11-13T23:41:22.082Z,1033.8
2016-11-13T23:46:26.160Z,1033.8
2016-11-13T23:51:30.240Z,1033.7
2016-11-13T23:56:34.658Z,1033.8
